createdAt,value
2023-01-20T00:00:32.774Z,0.00
2023-01-20T00:01:32.697Z,0.00
2023-01-20T00:02:32.705Z,0.00
2023-01-20T00:03:32.722Z,0.00
2023-01-20T00:04:32.668Z,0.00
2023-01-20T00:05:32.650Z,0.00
2023-01-20T00:06:32.640Z,0.00
2023-01-20T00:07:32.633Z,0.00
2023-01-20T00:08:32.643Z,0.00
2023-01-20T00:09:32.607Z,0.00
2023-01-20T00:10:32.612Z,0.00
2023-01-20T00:11:32.589Z,0.00
2023-01-20T00:12:32.592Z,0.00
2023-01-20T00:13:32.720Z,0.00
2023-01-20T00:14:32.552Z,0.00
2023-01-20T00:15:32.542Z,0.00
2023-01-20T00:16:32.547Z,0.00
2023-01-20T00:17:32.524Z,0.00
2023-01-20T00:18:32.533Z,0.00
2023-01-20T00:19:32.505Z,0.00
2023-01-20T00:20:32.492Z,0.00
2023-01-20T00:21:32.473Z,0.00
2023-01-20T00:22:32.471Z,0.00
2023-01-20T00:23:32.480Z,0.00
2023-01-20T00:24:32.457Z,0.00
2023-01-20T00:25:32.445Z,0.00
2023-01-20T00:26:32.450Z,0.00
2023-01-20T00:27:32.411Z,0.00
2023-01-20T00:28:32.503Z,0.00
2023-01-20T00:29:32.391Z,0.00
2023-01-20T00:30:32.472Z,0.00
2023-01-20T00:31:32.422Z,0.00
2023-01-20T00:32:32.363Z,0.00
2023-01-20T00:33:32.361Z,0.00
2023-01-20T00:34:32.353Z,0.00
2023-01-20T00:35:32.354Z,0.00
2023-01-20T00:36:32.309Z,0.00
2023-01-20T00:37:32.322Z,0.00
2023-01-20T00:38:32.322Z,0.00
2023-01-20T00:39:32.292Z,0.00
2023-01-20T00:40:32.273Z,0.00
2023-01-20T00:41:32.282Z,0.00
2023-01-20T00:42:32.265Z,0.00
2023-01-20T00:43:32.260Z,0.00
2023-01-20T00:44:32.244Z,0.00
2023-01-20T00:45:32.219Z,0.00
2023-01-20T00:46:32.324Z,0.00
2023-01-20T00:47:32.192Z,0.00
2023-01-20T00:48:32.224Z,0.00
2023-01-20T00:49:32.176Z,0.00
2023-01-20T00:50:32.183Z,0.00
2023-01-20T00:51:32.158Z,0.00
2023-01-20T00:52:32.153Z,0.00
2023-01-20T00:53:32.147Z,0.00
2023-01-20T00:54:32.134Z,0.00
2023-01-20T00:55:32.145Z,0.00
2023-01-20T00:56:32.122Z,0.00
2023-01-20T00:57:32.095Z,0.00
2023-01-20T00:58:32.134Z,0.00
2023-01-20T00:59:32.075Z,0.00
2023-01-20T01:00:32.085Z,0.00
2023-01-20T01:01:32.083Z,0.00
2023-01-20T01:02:32.113Z,0.00
2023-01-20T01:03:32.052Z,0.00
2023-01-20T01:04:32.041Z,0.00
2023-01-20T01:05:32.024Z,0.00
2023-01-20T01:06:32.005Z,0.00
2023-01-20T01:07:31.993Z,0.00
2023-01-20T01:08:32.006Z,0.00
2023-01-20T01:09:31.965Z,0.00
2023-01-20T01:10:31.978Z,0.00
2023-01-20T01:11:31.957Z,0.00
2023-01-20T01:12:31.941Z,0.00
2023-01-20T01:13:31.953Z,0.00
2023-01-20T01:14:31.932Z,0.00
2023-01-20T01:15:31.908Z,0.00
2023-01-20T01:16:31.973Z,0.00
2023-01-20T01:17:31.883Z,0.00
2023-01-20T01:18:31.883Z,0.00
2023-01-20T01:19:31.863Z,0.00
2023-01-20T01:20:31.859Z,0.00
2023-01-20T01:21:31.863Z,0.00
2023-01-20T01:22:31.836Z,0.00
2023-01-20T01:23:31.834Z,0.00
2023-01-20T01:24:31.821Z,0.00
2023-01-20T01:25:31.803Z,0.00
2023-01-20T01:26:31.795Z,0.00
2023-01-20T01:27:31.781Z,0.00
2023-01-20T01:28:31.796Z,0.00
2023-01-20T01:29:31.792Z,0.00
2023-01-20T01:30:31.771Z,0.00
2023-01-20T01:31:31.785Z,0.00
2023-01-20T01:32:31.725Z,0.00
2023-01-20T01:33:31.746Z,0.00
2023-01-20T01:34:31.723Z,0.00
2023-01-20T01:35:31.708Z,0.00
2023-01-20T01:36:31.705Z,0.00
2023-01-20T01:37:31.686Z,0.00
2023-01-20T01:38:31.677Z,0.00
2023-01-20T01:39:31.651Z,0.00
2023-01-20T01:40:31.636Z,0.00
2023-01-20T01:41:31.633Z,0.00
2023-01-20T01:42:31.617Z,0.00
2023-01-20T01:43:31.655Z,0.00
2023-01-20T01:44:31.596Z,0.00
2023-01-20T01:45:31.624Z,0.00
2023-01-20T01:46:31.577Z,0.00
2023-01-20T01:47:31.581Z,0.00
2023-01-20T01:48:31.562Z,0.00
2023-01-20T01:49:31.553Z,0.00
2023-01-20T01:50:31.563Z,0.00
2023-01-20T01:51:31.542Z,0.00
2023-01-20T01:52:31.514Z,0.00
2023-01-20T01:53:31.515Z,0.00
2023-01-20T01:54:31.499Z,0.00
2023-01-20T01:55:31.495Z,0.00
2023-01-20T01:56:31.474Z,0.00
2023-01-20T01:57:31.467Z,0.00
2023-01-20T01:58:31.492Z,0.00
2023-01-20T01:59:31.445Z,0.00
2023-01-20T02:00:31.480Z,0.00
2023-01-20T02:01:31.460Z,0.00
2023-01-20T02:02:31.464Z,0.00
2023-01-20T02:03:31.413Z,0.00
2023-01-20T02:04:31.385Z,0.00
2023-01-20T02:05:31.389Z,0.00
2023-01-20T02:06:31.369Z,0.00
2023-01-20T02:07:31.367Z,0.00
2023-01-20T02:08:31.384Z,0.00
2023-01-20T02:09:31.345Z,0.00
2023-01-20T02:10:31.323Z,0.00
2023-01-20T02:11:31.330Z,0.00
2023-01-20T02:12:31.295Z,0.00
2023-01-20T02:13:31.307Z,0.00
2023-01-20T02:14:31.283Z,0.00
2023-01-20T02:15:31.265Z,0.00
2023-01-20T02:16:31.342Z,0.00
2023-01-20T02:17:31.258Z,0.00
2023-01-20T02:18:31.258Z,0.00
2023-01-20T02:19:31.233Z,0.00
2023-01-20T02:20:31.214Z,0.00
2023-01-20T02:21:31.204Z,0.00
2023-01-20T02:22:31.203Z,0.00
2023-01-20T02:23:31.197Z,0.00
2023-01-20T02:24:31.285Z,0.00
2023-01-20T02:25:31.164Z,0.00
2023-01-20T02:26:31.156Z,0.00
2023-01-20T02:27:31.138Z,0.00
2023-01-20T02:28:31.143Z,0.00
2023-01-20T02:29:31.114Z,0.00
2023-01-20T02:30:31.139Z,0.00
2023-01-20T02:31:31.138Z,0.00
2023-01-20T02:32:31.097Z,0.00
2023-01-20T02:33:31.096Z,0.00
2023-01-20T02:34:31.074Z,0.00
2023-01-20T02:35:31.076Z,0.00
2023-01-20T02:36:31.053Z,0.00
2023-01-20T02:37:31.046Z,0.00
2023-01-20T02:38:31.050Z,0.00
2023-01-20T02:39:31.014Z,0.00
2023-01-20T02:40:31.019Z,0.00
2023-01-20T02:41:31.003Z,0.00
2023-01-20T02:42:30.983Z,0.00
2023-01-20T02:43:30.996Z,0.00
2023-01-20T02:44:30.966Z,0.00
2023-01-20T02:45:31.017Z,0.00
2023-01-20T02:46:30.955Z,0.00
2023-01-20T02:47:30.934Z,0.00
2023-01-20T02:48:30.962Z,0.00
2023-01-20T02:49:30.915Z,0.00
2023-01-20T02:50:30.905Z,0.00
2023-01-20T02:51:30.896Z,0.00
2023-01-20T02:52:30.882Z,0.00
2023-01-20T02:53:30.891Z,0.00
2023-01-20T02:54:30.857Z,0.00
2023-01-20T02:55:30.875Z,0.00
2023-01-20T02:56:30.856Z,0.00
2023-01-20T02:57:30.856Z,0.00
2023-01-20T02:58:30.830Z,0.00
2023-01-20T02:59:30.804Z,0.00
2023-01-20T03:00:30.794Z,0.00
2023-01-20T03:01:30.847Z,0.00
2023-01-20T03:02:30.786Z,0.00
2023-01-20T03:03:30.795Z,0.00
2023-01-20T03:04:30.758Z,0.00
2023-01-20T03:05:30.772Z,0.00
2023-01-20T03:06:30.724Z,0.00
2023-01-20T03:07:30.721Z,0.00
2023-01-20T03:08:30.729Z,0.00
2023-01-20T03:09:30.694Z,0.00
2023-01-20T03:10:30.695Z,0.00
2023-01-20T03:11:30.686Z,0.00
2023-01-20T03:12:30.665Z,0.00
2023-01-20T03:13:30.673Z,0.00
2023-01-20T03:14:30.645Z,0.00
2023-01-20T03:15:30.645Z,0.00
2023-01-20T03:16:30.641Z,0.00
2023-01-20T03:17:30.624Z,0.00
2023-01-20T03:18:30.608Z,0.00
2023-01-20T03:19:30.607Z,0.00
2023-01-20T03:20:30.587Z,0.00
2023-01-20T03:21:30.575Z,0.00
2023-01-20T03:22:30.567Z,0.00
2023-01-20T03:23:30.575Z,0.00
2023-01-20T03:24:30.559Z,0.00
2023-01-20T03:25:30.555Z,0.00
2023-01-20T03:26:30.515Z,0.00
2023-01-20T03:27:30.503Z,0.00
2023-01-20T03:28:30.530Z,0.00
2023-01-20T03:29:30.494Z,0.00
2023-01-20T03:30:30.561Z,0.00
2023-01-20T03:31:30.656Z,0.00
2023-01-20T03:32:30.458Z,0.00
2023-01-20T03:33:30.524Z,0.00
2023-01-20T03:34:30.435Z,0.00
2023-01-20T03:35:30.447Z,0.00
2023-01-20T03:36:30.404Z,0.00
2023-01-20T03:37:30.404Z,0.00
2023-01-20T03:38:30.406Z,0.00
2023-01-20T03:39:30.376Z,0.00
2023-01-20T03:40:30.367Z,0.00
2023-01-20T03:41:30.365Z,0.00
2023-01-20T03:42:30.356Z,0.00
2023-01-20T03:43:30.384Z,0.00
2023-01-20T03:44:30.356Z,0.00
2023-01-20T03:45:30.325Z,0.00
2023-01-20T03:46:30.315Z,0.00
2023-01-20T03:47:30.318Z,0.00
2023-01-20T03:48:30.320Z,0.00
2023-01-20T03:49:30.296Z,0.00
2023-01-20T03:50:30.278Z,0.00
2023-01-20T03:51:30.267Z,0.00
2023-01-20T03:52:47.078Z,0.00
2023-01-20T03:53:31.256Z,0.00
2023-01-20T03:54:30.237Z,0.00
2023-01-20T03:55:30.216Z,0.00
2023-01-20T03:56:30.218Z,0.00
2023-01-20T03:57:30.207Z,0.00
2023-01-20T03:58:30.234Z,0.00
2023-01-20T03:59:30.186Z,0.00
2023-01-20T04:00:30.170Z,0.00
2023-01-20T04:01:30.327Z,0.00
2023-01-20T04:02:30.201Z,0.00
2023-01-20T04:03:30.263Z,0.00
2023-01-20T04:04:30.129Z,0.00
2023-01-20T04:05:30.113Z,0.00
2023-01-20T04:06:30.098Z,0.00
2023-01-20T04:07:30.096Z,0.00
2023-01-20T04:08:30.089Z,0.00
2023-01-20T04:09:30.065Z,0.00
2023-01-20T04:10:30.063Z,0.00
2023-01-20T04:11:30.065Z,0.00
2023-01-20T04:12:30.046Z,0.00
2023-01-20T04:13:30.044Z,0.00
2023-01-20T04:14:30.021Z,0.00
2023-01-20T04:15:30.649Z,0.00
2023-01-20T04:16:29.986Z,0.00
2023-01-20T04:17:29.987Z,0.00
2023-01-20T04:18:30.012Z,0.00
2023-01-20T04:19:29.978Z,0.00
2023-01-20T04:20:29.967Z,0.00
2023-01-20T04:21:29.958Z,0.00
2023-01-20T04:22:29.946Z,0.00
2023-01-20T04:23:29.971Z,0.00
2023-01-20T04:24:29.927Z,0.00
2023-01-20T04:25:29.895Z,0.00
2023-01-20T04:26:29.926Z,0.00
2023-01-20T04:27:29.877Z,0.00
2023-01-20T04:28:29.865Z,0.00
2023-01-20T04:29:29.858Z,0.00
2023-01-20T04:30:29.880Z,0.00
2023-01-20T04:31:31.397Z,0.00
2023-01-20T04:32:29.817Z,0.00
2023-01-20T04:33:29.826Z,0.00
2023-01-20T04:34:29.817Z,0.00
2023-01-20T04:35:29.785Z,0.00
2023-01-20T04:36:29.776Z,0.00
2023-01-20T04:37:29.765Z,0.00
2023-01-20T04:38:29.775Z,0.00
2023-01-20T04:39:29.739Z,0.00
2023-01-20T04:40:29.740Z,0.00
2023-01-20T04:41:29.718Z,0.00
2023-01-20T04:42:29.708Z,0.00
2023-01-20T04:43:29.716Z,0.00
2023-01-20T04:44:29.709Z,0.00
2023-01-20T04:45:29.685Z,0.00
2023-01-20T04:46:29.737Z,0.00
2023-01-20T04:47:29.676Z,0.00
2023-01-20T04:48:29.658Z,0.00
2023-01-20T04:49:29.675Z,0.00
2023-01-20T04:50:29.634Z,0.00
2023-01-20T04:51:29.611Z,0.00
2023-01-20T04:52:29.613Z,0.00
2023-01-20T04:53:29.618Z,0.00
2023-01-20T04:54:29.594Z,0.00
2023-01-20T04:55:29.579Z,0.00
2023-01-20T04:56:29.568Z,0.00
2023-01-20T04:57:29.567Z,0.00
2023-01-20T04:58:29.559Z,0.00
2023-01-20T04:59:29.581Z,0.00
2023-01-20T05:00:29.517Z,0.00
2023-01-20T05:01:29.569Z,0.00
2023-01-20T05:02:29.520Z,0.00
2023-01-20T05:03:29.510Z,0.00
2023-01-20T05:04:29.486Z,0.00
2023-01-20T05:05:29.468Z,0.00
2023-01-20T05:06:29.457Z,0.00
2023-01-20T05:07:29.459Z,0.00
2023-01-20T05:08:29.450Z,0.00
2023-01-20T05:09:29.423Z,0.00
2023-01-20T05:10:29.447Z,0.00
2023-01-20T05:11:29.410Z,0.00
2023-01-20T05:12:29.398Z,0.00
2023-01-20T05:13:29.390Z,0.00
2023-01-20T05:14:29.378Z,0.00
2023-01-20T05:15:29.358Z,0.00
2023-01-20T05:16:29.363Z,0.00
2023-01-20T05:17:29.337Z,0.00
2023-01-20T05:18:29.359Z,0.00
2023-01-20T05:19:29.317Z,0.00
2023-01-20T05:20:29.317Z,0.00
2023-01-20T05:21:29.297Z,0.00
2023-01-20T05:22:29.288Z,0.00
2023-01-20T05:23:29.315Z,0.00
2023-01-20T05:24:29.266Z,0.00
2023-01-20T05:25:29.266Z,0.00
2023-01-20T05:26:29.268Z,0.00
2023-01-20T05:27:29.227Z,0.00
2023-01-20T05:28:29.267Z,0.00
2023-01-20T05:29:29.218Z,0.00
2023-01-20T05:30:29.226Z,0.00
2023-01-20T05:31:29.345Z,0.00
2023-01-20T05:32:29.189Z,0.00
2023-01-20T05:33:29.198Z,0.00
2023-01-20T05:34:29.189Z,0.00
2023-01-20T05:35:29.147Z,0.00
2023-01-20T05:36:29.143Z,0.00
2023-01-20T05:37:29.128Z,0.00
2023-01-20T05:38:29.140Z,0.00
2023-01-20T05:39:29.095Z,0.00
2023-01-20T05:40:29.117Z,0.00
2023-01-20T05:41:29.101Z,0.00
2023-01-20T05:42:29.079Z,0.00
2023-01-20T05:43:29.081Z,0.00
2023-01-20T05:44:29.060Z,0.00
2023-01-20T05:45:29.038Z,0.00
2023-01-20T05:46:29.068Z,0.00
2023-01-20T05:47:29.028Z,0.00
2023-01-20T05:48:29.026Z,0.00
2023-01-20T05:49:29.000Z,0.00
2023-01-20T05:50:29.036Z,0.00
2023-01-20T05:51:29.008Z,0.00
2023-01-20T05:52:28.981Z,0.00
2023-01-20T05:53:28.997Z,0.00
2023-01-20T05:54:28.957Z,0.00
2023-01-20T05:55:28.937Z,0.00
2023-01-20T05:56:28.928Z,0.00
2023-01-20T05:57:28.923Z,0.00
2023-01-20T05:58:28.935Z,0.00
2023-01-20T05:59:28.892Z,0.00
2023-01-20T06:00:28.912Z,0.00
2023-01-20T06:01:28.888Z,0.00
2023-01-20T06:02:28.979Z,0.00
2023-01-20T06:03:28.887Z,0.00
2023-01-20T06:04:28.851Z,0.00
2023-01-20T06:05:28.841Z,0.00
2023-01-20T06:06:28.838Z,0.00
2023-01-20T06:07:28.813Z,0.00
2023-01-20T06:08:28.822Z,0.00
2023-01-20T06:09:28.789Z,0.00
2023-01-20T06:10:28.788Z,0.00
2023-01-20T06:11:28.777Z,0.00
2023-01-20T06:12:28.761Z,0.00
2023-01-20T06:13:28.814Z,0.00
2023-01-20T06:14:28.750Z,0.00
2023-01-20T06:15:28.736Z,0.00
2023-01-20T06:16:28.801Z,0.00
2023-01-20T06:17:28.711Z,0.00
2023-01-20T06:18:28.765Z,0.00
2023-01-20T06:19:28.717Z,0.00
2023-01-20T06:20:28.686Z,0.00
2023-01-20T06:21:28.658Z,0.00
2023-01-20T06:22:28.658Z,0.00
2023-01-20T06:23:28.653Z,0.00
2023-01-20T06:24:28.637Z,0.00
2023-01-20T06:25:28.619Z,0.00
2023-01-20T06:26:28.631Z,0.00
2023-01-20T06:27:28.599Z,0.00
2023-01-20T06:28:28.622Z,0.00
2023-01-20T06:29:28.579Z,0.00
2023-01-20T06:30:28.570Z,0.00
2023-01-20T06:31:28.690Z,0.00
2023-01-20T06:32:28.559Z,0.00
2023-01-20T06:33:28.580Z,0.00
2023-01-20T06:34:28.529Z,0.00
2023-01-20T06:35:28.520Z,0.00
2023-01-20T06:36:28.515Z,0.00
2023-01-20T06:37:28.512Z,0.00
2023-01-20T06:38:28.506Z,0.00
2023-01-20T06:39:28.475Z,0.00
2023-01-20T06:40:28.461Z,0.00
2023-01-20T06:41:28.449Z,0.00
2023-01-20T06:42:28.446Z,0.00
2023-01-20T06:43:28.463Z,0.00
2023-01-20T06:44:28.426Z,0.00
2023-01-20T06:45:28.407Z,0.00
2023-01-20T06:46:28.437Z,0.00
2023-01-20T06:47:28.394Z,0.00
2023-01-20T06:48:28.389Z,0.00
2023-01-20T06:49:28.369Z,0.00
2023-01-20T06:50:28.362Z,0.00
2023-01-20T06:51:28.345Z,0.00
2023-01-20T06:52:28.376Z,0.00
2023-01-20T06:53:28.359Z,0.00
2023-01-20T06:54:28.322Z,0.00
2023-01-20T06:55:28.321Z,0.00
2023-01-20T06:56:28.299Z,0.00
2023-01-20T06:57:28.282Z,0.00
2023-01-20T06:58:28.313Z,0.00
2023-01-20T06:59:28.276Z,0.00
2023-01-20T07:00:28.380Z,0.00
2023-01-20T07:01:28.529Z,0.00
2023-01-20T07:02:28.242Z,0.00
2023-01-20T07:03:28.231Z,0.00
2023-01-20T07:04:28.211Z,0.00
2023-01-20T07:05:28.205Z,0.00
2023-01-20T07:06:28.179Z,0.00
2023-01-20T07:07:28.181Z,0.00
2023-01-20T07:08:28.195Z,0.00
2023-01-20T07:09:28.200Z,0.00
2023-01-20T07:10:28.148Z,0.00
2023-01-20T07:11:28.141Z,0.00
2023-01-20T07:12:28.130Z,0.00
2023-01-20T07:13:28.144Z,0.00
2023-01-20T07:14:28.110Z,5.62
2023-01-20T07:15:28.091Z,5.62
2023-01-20T07:16:28.100Z,5.62
2023-01-20T07:17:28.087Z,5.62
2023-01-20T07:18:28.081Z,5.62
2023-01-20T07:19:28.052Z,5.62
2023-01-20T07:20:28.040Z,5.62
2023-01-20T07:21:28.032Z,5.62
2023-01-20T07:22:28.034Z,5.62
2023-01-20T07:23:28.036Z,11.25
2023-01-20T07:24:27.995Z,11.25
2023-01-20T07:25:27.991Z,11.25
2023-01-20T07:26:27.989Z,11.25
2023-01-20T07:27:27.984Z,11.25
2023-01-20T07:28:27.958Z,11.25
2023-01-20T07:29:27.964Z,11.25
2023-01-20T07:30:27.973Z,11.25
2023-01-20T07:31:28.105Z,11.25
2023-01-20T07:32:27.920Z,16.88
2023-01-20T07:33:27.911Z,16.88
2023-01-20T07:34:27.906Z,16.88
2023-01-20T07:35:27.890Z,16.88
2023-01-20T07:36:27.880Z,22.50
2023-01-20T07:37:27.922Z,22.50
2023-01-20T07:38:27.861Z,22.50
2023-01-20T07:39:27.832Z,22.50
2023-01-20T07:40:27.851Z,22.50
2023-01-20T07:41:27.844Z,28.12
2023-01-20T07:42:27.810Z,28.12
2023-01-20T07:43:27.806Z,33.75
2023-01-20T07:44:27.794Z,33.75
2023-01-20T07:45:27.794Z,33.75
2023-01-20T07:46:27.772Z,33.75
2023-01-20T07:47:27.772Z,39.38
2023-01-20T07:48:27.768Z,39.38
2023-01-20T07:49:27.732Z,45.00
2023-01-20T07:50:27.779Z,50.62
2023-01-20T07:51:27.739Z,56.25
2023-01-20T07:52:27.703Z,56.25
2023-01-20T07:53:27.850Z,61.88
2023-01-20T07:54:27.684Z,67.50
2023-01-20T07:55:27.675Z,67.50
2023-01-20T07:56:27.666Z,67.50
2023-01-20T07:57:27.665Z,73.12
2023-01-20T07:58:27.655Z,78.75
2023-01-20T07:59:27.629Z,84.38
2023-01-20T08:00:27.671Z,90.00
2023-01-20T08:01:27.749Z,95.62
2023-01-20T08:02:27.602Z,101.25
2023-01-20T08:03:27.602Z,106.88
2023-01-20T08:04:27.629Z,112.50
2023-01-20T08:05:27.561Z,112.50
2023-01-20T08:06:27.585Z,106.88
2023-01-20T08:07:27.544Z,106.88
2023-01-20T08:08:27.551Z,106.88
2023-01-20T08:09:27.523Z,106.88
2023-01-20T08:10:27.557Z,106.88
2023-01-20T08:11:27.535Z,106.88
2023-01-20T08:12:27.492Z,112.50
2023-01-20T08:13:27.485Z,118.12
2023-01-20T08:14:27.490Z,123.75
2023-01-20T08:15:27.454Z,129.38
2023-01-20T08:16:27.478Z,135.00
2023-01-20T08:17:27.459Z,140.62
2023-01-20T08:18:27.444Z,140.62
2023-01-20T08:19:27.457Z,146.25
2023-01-20T08:20:27.437Z,157.50
2023-01-20T08:21:27.412Z,163.12
2023-01-20T08:22:27.431Z,174.38
2023-01-20T08:23:27.467Z,180.00
2023-01-20T08:24:27.401Z,185.62
2023-01-20T08:25:27.361Z,191.25
2023-01-20T08:26:27.379Z,196.88
2023-01-20T08:27:27.379Z,196.88
2023-01-20T08:28:28.216Z,202.50
2023-01-20T08:29:27.309Z,202.50
2023-01-20T08:30:27.458Z,180.00
2023-01-20T08:31:27.411Z,163.12
2023-01-20T08:32:27.286Z,185.62
2023-01-20T08:33:27.275Z,202.50
2023-01-20T08:34:27.253Z,202.50
2023-01-20T08:35:27.248Z,202.50
2023-01-20T08:36:27.259Z,236.25
2023-01-20T08:37:27.225Z,253.12
2023-01-20T08:38:27.227Z,258.75
2023-01-20T08:39:27.217Z,258.75
2023-01-20T08:40:27.221Z,247.50
2023-01-20T08:41:27.184Z,236.25
2023-01-20T08:42:27.181Z,236.25
2023-01-20T08:43:27.173Z,253.12
2023-01-20T08:44:27.153Z,264.38
2023-01-20T08:45:27.171Z,264.38
2023-01-20T08:46:27.249Z,258.75
2023-01-20T08:47:27.154Z,253.12
2023-01-20T08:48:27.173Z,258.75
2023-01-20T08:49:27.104Z,281.25
2023-01-20T08:50:27.094Z,309.38
2023-01-20T08:51:27.110Z,337.50
2023-01-20T08:52:27.065Z,360.00
2023-01-20T08:53:27.076Z,360.00
2023-01-20T08:54:27.055Z,354.38
2023-01-20T08:55:27.036Z,354.38
2023-01-20T08:56:27.033Z,376.88
2023-01-20T08:57:27.005Z,393.75
2023-01-20T08:58:27.024Z,405.00
2023-01-20T08:59:26.997Z,410.62
2023-01-20T09:00:27.003Z,410.62
2023-01-20T09:01:27.024Z,410.62
2023-01-20T09:02:27.027Z,416.25
2023-01-20T09:03:26.960Z,421.88
2023-01-20T09:04:26.952Z,416.25
2023-01-20T09:05:26.924Z,399.38
2023-01-20T09:06:26.978Z,360.00
2023-01-20T09:07:26.931Z,331.88
2023-01-20T09:08:26.937Z,320.62
2023-01-20T09:09:26.875Z,343.12
2023-01-20T09:10:26.900Z,348.75
2023-01-20T09:11:26.890Z,360.00
2023-01-20T09:12:26.848Z,371.25
2023-01-20T09:13:26.858Z,388.12
2023-01-20T09:14:26.835Z,410.62
2023-01-20T09:15:26.816Z,427.50
2023-01-20T09:16:26.949Z,438.75
2023-01-20T09:17:26.834Z,438.75
2023-01-20T09:18:26.811Z,438.75
2023-01-20T09:19:26.794Z,438.75
2023-01-20T09:20:26.776Z,433.12
2023-01-20T09:21:26.754Z,433.12
2023-01-20T09:22:26.787Z,438.75
2023-01-20T09:23:26.777Z,450.00
2023-01-20T09:24:26.718Z,455.62
2023-01-20T09:25:26.707Z,450.00
2023-01-20T09:26:35.936Z,444.38
2023-01-20T09:27:27.676Z,433.12
2023-01-20T09:28:27.335Z,427.50
2023-01-20T09:29:26.664Z,427.50
2023-01-20T09:30:26.669Z,421.88
2023-01-20T09:31:26.716Z,416.25
2023-01-20T09:32:26.637Z,416.25
2023-01-20T09:33:26.628Z,421.88
2023-01-20T09:34:26.615Z,433.12
2023-01-20T09:35:26.601Z,438.75
2023-01-20T09:36:28.474Z,444.38
2023-01-20T09:37:26.589Z,444.38
2023-01-20T09:38:26.586Z,444.38
2023-01-20T09:39:26.547Z,438.75
2023-01-20T09:40:26.560Z,438.75
2023-01-20T09:41:26.531Z,438.75
2023-01-20T09:42:26.517Z,438.75
2023-01-20T09:43:26.569Z,433.12
2023-01-20T09:44:26.502Z,438.75
2023-01-20T09:45:26.495Z,455.62
2023-01-20T09:46:26.537Z,461.25
2023-01-20T09:47:27.660Z,466.88
2023-01-20T09:48:26.474Z,472.50
2023-01-20T09:49:26.449Z,466.88
2023-01-20T09:50:26.448Z,461.25
2023-01-20T09:51:26.431Z,461.25
2023-01-20T09:52:26.418Z,466.88
2023-01-20T09:53:26.408Z,472.50
2023-01-20T09:54:26.414Z,483.75
2023-01-20T09:55:26.404Z,500.62
2023-01-20T09:56:26.369Z,511.88
2023-01-20T09:57:26.364Z,506.25
2023-01-20T09:58:26.423Z,483.75
2023-01-20T09:59:26.341Z,450.00
2023-01-20T10:00:26.320Z,438.75
2023-01-20T10:01:26.314Z,421.88
2023-01-20T10:02:26.314Z,410.62
2023-01-20T10:03:26.313Z,393.75
2023-01-20T10:04:26.295Z,393.75
2023-01-20T10:05:26.294Z,388.12
2023-01-20T10:06:26.261Z,393.75
2023-01-20T10:07:26.252Z,393.75
2023-01-20T10:08:26.252Z,388.12
2023-01-20T10:09:26.229Z,382.50
2023-01-20T10:10:26.231Z,371.25
2023-01-20T10:11:26.262Z,360.00
2023-01-20T10:12:26.205Z,348.75
2023-01-20T10:13:26.210Z,343.12
2023-01-20T10:14:26.181Z,343.12
2023-01-20T10:15:26.162Z,343.12
2023-01-20T10:16:26.193Z,343.12
2023-01-20T10:17:26.142Z,348.75
2023-01-20T10:18:26.135Z,354.38
2023-01-20T10:19:26.118Z,365.62
2023-01-20T10:20:28.001Z,371.25
2023-01-20T10:21:26.093Z,376.88
2023-01-20T10:22:26.095Z,388.12
2023-01-20T10:23:26.092Z,405.00
2023-01-20T10:24:26.091Z,416.25
2023-01-20T10:25:26.051Z,421.88
2023-01-20T10:26:26.050Z,427.50
2023-01-20T10:27:26.031Z,438.75
2023-01-20T10:28:26.033Z,545.62
2023-01-20T10:29:26.024Z,461.25
2023-01-20T10:30:26.078Z,461.25
2023-01-20T10:31:26.028Z,472.50
2023-01-20T10:32:25.978Z,495.00
2023-01-20T10:33:25.986Z,517.50
2023-01-20T10:34:26.001Z,545.62
2023-01-20T10:35:25.955Z,568.12
2023-01-20T10:36:25.984Z,601.88
2023-01-20T10:37:25.932Z,641.25
2023-01-20T10:38:25.932Z,714.38
2023-01-20T10:39:25.904Z,759.38
2023-01-20T10:40:25.958Z,905.62
2023-01-20T10:41:25.918Z,928.12
2023-01-20T10:42:25.891Z,1153.12
2023-01-20T10:43:25.896Z,933.75
2023-01-20T10:44:25.882Z,1406.25
2023-01-20T10:45:25.833Z,1175.62
2023-01-20T10:46:25.906Z,1344.38
2023-01-20T10:47:25.839Z,1096.88
2023-01-20T10:48:25.845Z,905.62
2023-01-20T10:49:25.793Z,753.75
2023-01-20T10:50:25.806Z,613.12
2023-01-20T10:51:25.774Z,562.50
2023-01-20T10:52:25.760Z,540.00
2023-01-20T10:53:25.767Z,545.62
2023-01-20T10:54:25.733Z,528.75
2023-01-20T10:55:25.737Z,540.00
2023-01-20T10:56:25.714Z,540.00
2023-01-20T10:57:25.711Z,540.00
2023-01-20T10:58:25.724Z,562.50
2023-01-20T10:59:25.688Z,579.38
2023-01-20T11:00:25.667Z,545.62
2023-01-20T11:01:25.677Z,523.12
2023-01-20T11:02:25.707Z,506.25
2023-01-20T11:03:25.654Z,438.75
2023-01-20T11:04:25.630Z,427.50
2023-01-20T11:05:25.616Z,399.38
2023-01-20T11:06:25.619Z,343.12
2023-01-20T11:07:25.603Z,320.62
2023-01-20T11:08:25.627Z,309.38
2023-01-20T11:09:25.578Z,298.12
2023-01-20T11:10:25.577Z,286.88
2023-01-20T11:11:25.563Z,270.00
2023-01-20T11:12:25.606Z,258.75
2023-01-20T11:13:25.545Z,247.50
2023-01-20T11:14:26.252Z,236.25
2023-01-20T11:15:25.509Z,230.62
2023-01-20T11:16:25.573Z,225.00
2023-01-20T11:17:25.498Z,219.38
2023-01-20T11:18:25.489Z,213.75
2023-01-20T11:19:25.467Z,213.75
2023-01-20T11:20:25.459Z,213.75
2023-01-20T11:21:25.437Z,213.75
2023-01-20T11:22:25.439Z,219.38
2023-01-20T11:23:25.430Z,225.00
2023-01-20T11:24:25.411Z,230.62
2023-01-20T11:25:25.401Z,236.25
2023-01-20T11:26:28.007Z,247.50
2023-01-20T11:27:25.393Z,247.50
2023-01-20T11:28:25.384Z,253.12
2023-01-20T11:29:25.362Z,258.75
2023-01-20T11:30:25.344Z,258.75
2023-01-20T11:31:25.342Z,264.38
2023-01-20T11:32:25.389Z,264.38
2023-01-20T11:33:25.403Z,264.38
2023-01-20T11:34:25.300Z,264.38
2023-01-20T11:35:25.327Z,258.75
2023-01-20T11:36:25.288Z,253.12
2023-01-20T11:37:25.271Z,247.50
2023-01-20T11:38:25.279Z,247.50
2023-01-20T11:39:25.263Z,253.12
2023-01-20T11:40:25.242Z,253.12
2023-01-20T11:41:25.227Z,258.75
2023-01-20T11:42:25.261Z,264.38
2023-01-20T11:43:25.218Z,264.38
2023-01-20T11:44:25.201Z,264.38
2023-01-20T11:45:25.182Z,264.38
2023-01-20T11:46:25.250Z,258.75
2023-01-20T11:47:25.162Z,253.12
2023-01-20T11:48:25.159Z,247.50
2023-01-20T11:49:25.139Z,241.88
2023-01-20T11:50:25.134Z,236.25
2023-01-20T11:51:25.203Z,236.25
2023-01-20T11:52:25.138Z,236.25
2023-01-20T11:53:25.126Z,236.25
2023-01-20T11:54:25.093Z,236.25
2023-01-20T11:55:25.084Z,236.25
2023-01-20T11:56:25.067Z,236.25
2023-01-20T11:57:25.042Z,236.25
2023-01-20T11:58:25.063Z,236.25
2023-01-20T11:59:25.025Z,236.25
2023-01-20T12:00:25.026Z,230.62
2023-01-20T12:01:25.010Z,225.00
2023-01-20T12:02:25.004Z,225.00
2023-01-20T12:03:24.994Z,219.38
2023-01-20T12:04:25.029Z,213.75
2023-01-20T12:05:24.987Z,202.50
2023-01-20T12:06:24.954Z,196.88
2023-01-20T12:07:24.933Z,185.62
2023-01-20T12:08:24.958Z,180.00
2023-01-20T12:09:24.931Z,168.75
2023-01-20T12:10:24.921Z,163.12
2023-01-20T12:11:24.924Z,163.12
2023-01-20T12:12:24.906Z,157.50
2023-01-20T12:13:24.887Z,157.50
2023-01-20T12:14:25.015Z,151.88
2023-01-20T12:15:24.868Z,146.25
2023-01-20T12:16:24.876Z,146.25
2023-01-20T12:17:24.825Z,146.25
2023-01-20T12:18:24.836Z,146.25
2023-01-20T12:19:24.814Z,146.25
2023-01-20T12:20:24.808Z,146.25
2023-01-20T12:21:25.327Z,146.25
2023-01-20T12:22:24.786Z,146.25
2023-01-20T12:23:24.948Z,146.25
2023-01-20T12:24:32.627Z,140.62
2023-01-20T12:25:25.749Z,140.62
2023-01-20T12:26:24.776Z,135.00
2023-01-20T12:27:24.726Z,129.38
2023-01-20T12:28:24.758Z,129.38
2023-01-20T12:29:24.695Z,123.75
2023-01-20T12:30:24.689Z,123.75
2023-01-20T12:31:24.747Z,118.12
2023-01-20T12:32:24.676Z,118.12
2023-01-20T12:33:24.673Z,112.50
2023-01-20T12:34:24.663Z,106.88
2023-01-20T12:35:24.636Z,101.25
2023-01-20T12:36:24.626Z,95.62
2023-01-20T12:37:24.617Z,95.62
2023-01-20T12:38:24.618Z,95.62
2023-01-20T12:39:24.596Z,101.25
2023-01-20T12:40:24.587Z,101.25
2023-01-20T12:41:24.578Z,101.25
2023-01-20T12:42:24.581Z,106.88
2023-01-20T12:43:24.558Z,106.88
2023-01-20T12:44:24.551Z,106.88
2023-01-20T12:45:24.534Z,106.88
2023-01-20T12:46:24.527Z,106.88
2023-01-20T12:47:24.512Z,112.50
2023-01-20T12:48:24.506Z,112.50
2023-01-20T12:49:24.482Z,118.12
2023-01-20T12:50:24.478Z,118.12
2023-01-20T12:51:24.464Z,123.75
2023-01-20T12:52:24.539Z,123.75
2023-01-20T12:53:24.447Z,129.38
2023-01-20T12:54:25.953Z,129.38
2023-01-20T12:55:24.416Z,129.38
2023-01-20T12:56:24.446Z,129.38
2023-01-20T12:57:24.397Z,129.38